sensor_id;sensor_type;location;lat;lon;timestamp;temperature;humidity
9414;DHT22;4746;35.664;139.738;2022-10-19T00:01:21;16.60;99.90
9414;DHT22;4746;35.664;139.738;2022-10-19T00:03:52;16.60;99.90
9414;DHT22;4746;35.664;139.738;2022-10-19T00:06:25;16.60;99.90
9414;DHT22;4746;35.664;139.738;2022-10-19T00:09:05;16.70;99.90
9414;DHT22;4746;35.664;139.738;2022-10-19T00:11:38;16.70;99.90
9414;DHT22;4746;35.664;139.738;2022-10-19T00:14:11;16.70;99.90
9414;DHT22;4746;35.664;139.738;2022-10-19T00:16:43;16.70;99.90
9414;DHT22;4746;35.664;139.738;2022-10-19T00:19:18;16.70;99.90
9414;DHT22;4746;35.664;139.738;2022-10-19T00:21:49;16.70;99.90
9414;DHT22;4746;35.664;139.738;2022-10-19T00:24:17;16.70;99.90
9414;DHT22;4746;35.664;139.738;2022-10-19T00:26:46;16.70;99.90
9414;DHT22;4746;35.664;139.738;2022-10-19T00:29:14;16.70;99.90
9414;DHT22;4746;35.664;139.738;2022-10-19T00:31:42;16.80;99.90
9414;DHT22;4746;35.664;139.738;2022-10-19T00:34:09;16.90;99.90
9414;DHT22;4746;35.664;139.738;2022-10-19T00:36:39;17.00;99.90
9414;DHT22;4746;35.664;139.738;2022-10-19T00:39:12;17.10;99.90
9414;DHT22;4746;35.664;139.738;2022-10-19T00:41:41;17.20;99.90
9414;DHT22;4746;35.664;139.738;2022-10-19T00:46:43;17.40;99.90
9414;DHT22;4746;35.664;139.738;2022-10-19T00:49:36;17.50;99.90
9414;DHT22;4746;35.664;139.738;2022-10-19T00:52:16;17.50;99.90
9414;DHT22;4746;35.664;139.738;2022-10-19T00:54:47;17.60;99.90
9414;DHT22;4746;35.664;139.738;2022-10-19T00:57:17;17.70;99.90
9414;DHT22;4746;35.664;139.738;2022-10-19T00:59:46;17.80;99.90
9414;DHT22;4746;35.664;139.738;2022-10-19T01:02:14;17.80;99.90
9414;DHT22;4746;35.664;139.738;2022-10-19T01:04:46;17.80;99.90
9414;DHT22;4746;35.664;139.738;2022-10-19T01:07:18;17.90;99.90
9414;DHT22;4746;35.664;139.738;2022-10-19T01:09:46;18.00;99.90
9414;DHT22;4746;35.664;139.738;2022-10-19T01:12:54;18.10;99.90
9414;DHT22;4746;35.664;139.738;2022-10-19T01:19:00;18.30;99.90
9414;DHT22;4746;35.664;139.738;2022-10-19T01:25:31;18.70;99.90
9414;DHT22;4746;35.664;139.738;2022-10-19T01:37:14;18.50;99.90
9414;DHT22;4746;35.664;139.738;2022-10-19T01:45:14;18.40;99.90
9414;DHT22;4746;35.664;139.738;2022-10-19T01:48:11;18.50;99.90
9414;DHT22;4746;35.664;139.738;2022-10-19T01:50:48;18.60;99.90
9414;DHT22;4746;35.664;139.738;2022-10-19T01:53:21;18.70;99.90
9414;DHT22;4746;35.664;139.738;2022-10-19T01:55:53;18.70;99.90
9414;DHT22;4746;35.664;139.738;2022-10-19T01:58:29;18.80;99.90
9414;DHT22;4746;35.664;139.738;2022-10-19T02:01:03;18.80;99.90
9414;DHT22;4746;35.664;139.738;2022-10-19T02:03:35;18.80;99.90
9414;DHT22;4746;35.664;139.738;2022-10-19T02:06:05;18.90;99.90
9414;DHT22;4746;35.664;139.738;2022-10-19T02:08:53;19.00;99.90
9414;DHT22;4746;35.664;139.738;2022-10-19T02:11:22;19.10;99.90
9414;DHT22;4746;35.664;139.738;2022-10-19T02:14:00;19.10;99.90
9414;DHT22;4746;35.664;139.738;2022-10-19T02:16:46;19.10;99.90
9414;DHT22;4746;35.664;139.738;2022-10-19T02:19:19;19.10;99.90
9414;DHT22;4746;35.664;139.738;2022-10-19T02:21:49;19.10;99.90
9414;DHT22;4746;35.664;139.738;2022-10-19T02:24:17;19.20;99.90
9414;DHT22;4746;35.664;139.738;2022-10-19T02:26:45;19.20;99.90
9414;DHT22;4746;35.664;139.738;2022-10-19T02:29:13;19.30;99.90
9414;DHT22;4746;35.664;139.738;2022-10-19T02:31:42;19.20;99.90
9414;DHT22;4746;35.664;139.738;2022-10-19T02:34:11;19.30;99.90
9414;DHT22;4746;35.664;139.738;2022-10-19T02:36:39;19.20;99.90
9414;DHT22;4746;35.664;139.738;2022-10-19T02:39:08;19.30;99.90
9414;DHT22;4746;35.664;139.738;2022-10-19T02:41:50;19.30;99.90
9414;DHT22;4746;35.664;139.738;2022-10-19T02:45:11;19.40;99.90
9414;DHT22;4746;35.664;139.738;2022-10-19T02:47:36;19.50;99.90
9414;DHT22;4746;35.664;139.738;2022-10-19T02:50:18;19.80;99.90
9414;DHT22;4746;35.664;139.738;2022-10-19T02:52:46;19.90;99.90
9414;DHT22;4746;35.664;139.738;2022-10-19T02:55:14;20.10;99.90
9414;DHT22;4746;35.664;139.738;2022-10-19T02:57:42;20.30;99.90
9414;DHT22;4746;35.664;139.738;2022-10-19T03:00:10;20.30;99.90
9414;DHT22;4746;35.664;139.738;2022-10-19T03:02:37;20.30;99.90
9414;DHT22;4746;35.664;139.738;2022-10-19T03:05:05;20.30;99.90
9414;DHT22;4746;35.664;139.738;2022-10-19T03:07:34;20.30;99.90
9414;DHT22;4746;35.664;139.738;2022-10-19T03:10:02;20.30;99.90
9414;DHT22;4746;35.664;139.738;2022-10-19T03:12:29;20.50;99.90
9414;DHT22;4746;35.664;139.738;2022-10-19T03:14:57;20.60;99.90
9414;DHT22;4746;35.664;139.738;2022-10-19T03:17:24;20.50;99.90
9414;DHT22;4746;35.664;139.738;2022-10-19T03:19:52;20.60;99.90
9414;DHT22;4746;35.664;139.738;2022-10-19T03:22:19;20.60;99.90
9414;DHT22;4746;35.664;139.738;2022-10-19T03:24:47;20.60;99.90
9414;DHT22;4746;35.664;139.738;2022-10-19T03:27:14;20.60;99.90
9414;DHT22;4746;35.664;139.738;2022-10-19T03:29:42;20.60;99.90
9414;DHT22;4746;35.664;139.738;2022-10-19T03:32:09;20.50;99.90
9414;DHT22;4746;35.664;139.738;2022-10-19T03:34:36;20.60;99.90
9414;DHT22;4746;35.664;139.738;2022-10-19T03:37:04;20.60;99.90
9414;DHT22;4746;35.664;139.738;2022-10-19T03:39:33;20.70;99.90
9414;DHT22;4746;35.664;139.738;2022-10-19T03:42:01;20.90;99.90
9414;DHT22;4746;35.664;139.738;2022-10-19T03:44:28;21.10;99.90
9414;DHT22;4746;35.664;139.738;2022-10-19T03:46:56;21.30;99.90
9414;DHT22;4746;35.664;139.738;2022-10-19T03:49:24;21.60;99.90
9414;DHT22;4746;35.664;139.738;2022-10-19T03:51:51;21.70;99.90
9414;DHT22;4746;35.664;139.738;2022-10-19T03:54:19;21.80;99.90
9414;DHT22;4746;35.664;139.738;2022-10-19T03:56:46;21.90;99.90
9414;DHT22;4746;35.664;139.738;2022-10-19T03:59:14;21.80;99.90
9414;DHT22;4746;35.664;139.738;2022-10-19T04:01:44;21.80;99.90
9414;DHT22;4746;35.664;139.738;2022-10-19T04:04:16;21.70;99.90
9414;DHT22;4746;35.664;139.738;2022-10-19T04:06:46;21.60;99.90
9414;DHT22;4746;35.664;139.738;2022-10-19T04:09:17;21.60;99.90
9414;DHT22;4746;35.664;139.738;2022-10-19T04:11:47;21.50;99.90
9414;DHT22;4746;35.664;139.738;2022-10-19T04:14:17;21.50;99.90
9414;DHT22;4746;35.664;139.738;2022-10-19T04:16:48;21.50;99.90
9414;DHT22;4746;35.664;139.738;2022-10-19T04:19:18;21.40;99.90
9414;DHT22;4746;35.664;139.738;2022-10-19T04:21:47;21.40;99.90
9414;DHT22;4746;35.664;139.738;2022-10-19T04:24:17;21.40;99.90
9414;DHT22;4746;35.664;139.738;2022-10-19T04:26:47;21.30;99.90
9414;DHT22;4746;35.664;139.738;2022-10-19T04:29:18;21.40;99.90
9414;DHT22;4746;35.664;139.738;2022-10-19T04:31:49;21.30;99.90
9414;DHT22;4746;35.664;139.738;2022-10-19T04:34:18;21.30;99.90
9414;DHT22;4746;35.664;139.738;2022-10-19T04:36:45;21.20;99.90
9414;DHT22;4746;35.664;139.738;2022-10-19T04:39:13;21.20;99.90
9414;DHT22;4746;35.664;139.738;2022-10-19T04:41:40;21.30;99.90
9414;DHT22;4746;35.664;139.738;2022-10-19T04:44:09;21.40;99.90
9414;DHT22;4746;35.664;139.738;2022-10-19T04:46:36;21.60;99.90
9414;DHT22;4746;35.664;139.738;2022-10-19T04:49:04;21.70;99.90
9414;DHT22;4746;35.664;139.738;2022-10-19T04:51:32;21.90;99.90
9414;DHT22;4746;35.664;139.738;2022-10-19T04:54:02;22.30;99.90
9414;DHT22;4746;35.664;139.738;2022-10-19T04:56:30;22.70;99.90
9414;DHT22;4746;35.664;139.738;2022-10-19T04:58:59;23.00;99.90
9414;DHT22;4746;35.664;139.738;2022-10-19T05:01:28;23.30;99.90
9414;DHT22;4746;35.664;139.738;2022-10-19T05:03:58;23.60;99.70
9414;DHT22;4746;35.664;139.738;2022-10-19T05:06:29;23.90;97.80
9414;DHT22;4746;35.664;139.738;2022-10-19T05:08:58;24.20;97.50
9414;DHT22;4746;35.664;139.738;2022-10-19T05:11:26;24.50;94.50
9414;DHT22;4746;35.664;139.738;2022-10-19T05:13:55;25.10;94.70
9414;DHT22;4746;35.664;139.738;2022-10-19T05:16:24;25.90;90.90
9414;DHT22;4746;35.664;139.738;2022-10-19T05:18:53;26.80;88.10
9414;DHT22;4746;35.664;139.738;2022-10-19T05:21:25;27.50;81.20
9414;DHT22;4746;35.664;139.738;2022-10-19T05:23:54;28.10;74.80
9414;DHT22;4746;35.664;139.738;2022-10-19T05:26:25;28.80;64.00
9414;DHT22;4746;35.664;139.738;2022-10-19T05:28:58;29.30;61.00
9414;DHT22;4746;35.664;139.738;2022-10-19T05:31:31;29.80;56.90
9414;DHT22;4746;35.664;139.738;2022-10-19T05:34:00;29.80;54.00
9414;DHT22;4746;35.664;139.738;2022-10-19T05:36:37;29.70;52.20
9414;DHT22;4746;35.664;139.738;2022-10-19T05:39:13;29.90;48.80
9414;DHT22;4746;35.664;139.738;2022-10-19T05:41:43;29.80;48.40
9414;DHT22;4746;35.664;139.738;2022-10-19T05:44:20;29.40;48.10
9414;DHT22;4746;35.664;139.738;2022-10-19T05:46:50;28.90;46.20
9414;DHT22;4746;35.664;139.738;2022-10-19T05:49:19;28.50;46.40
9414;DHT22;4746;35.664;139.738;2022-10-19T05:51:48;28.10;46.60
9414;DHT22;4746;35.664;139.738;2022-10-19T05:54:17;27.50;45.80
9414;DHT22;4746;35.664;139.738;2022-10-19T05:56:45;26.90;46.50
9414;DHT22;4746;35.664;139.738;2022-10-19T05:59:17;26.30;46.80
9414;DHT22;4746;35.664;139.738;2022-10-19T06:01:46;25.80;47.30
9414;DHT22;4746;35.664;139.738;2022-10-19T06:04:14;25.40;48.40
9414;DHT22;4746;35.664;139.738;2022-10-19T06:06:42;25.10;49.40
9414;DHT22;4746;35.664;139.738;2022-10-19T06:09:10;24.80;50.10
9414;DHT22;4746;35.664;139.738;2022-10-19T06:11:40;24.60;50.70
9414;DHT22;4746;35.664;139.738;2022-10-19T06:14:12;24.30;50.90
9414;DHT22;4746;35.664;139.738;2022-10-19T06:16:41;24.00;51.20
9414;DHT22;4746;35.664;139.738;2022-10-19T06:19:11;23.70;51.50
9414;DHT22;4746;35.664;139.738;2022-10-19T06:21:38;23.40;51.90
9414;DHT22;4746;35.664;139.738;2022-10-19T06:24:05;23.20;52.50
9414;DHT22;4746;35.664;139.738;2022-10-19T06:26:34;22.90;52.80
9414;DHT22;4746;35.664;139.738;2022-10-19T06:29:03;22.70;53.70
9414;DHT22;4746;35.664;139.738;2022-10-19T06:31:33;22.60;54.40
9414;DHT22;4746;35.664;139.738;2022-10-19T06:34:01;22.90;55.20
9414;DHT22;4746;35.664;139.738;2022-10-19T06:36:31;23.40;55.30
9414;DHT22;4746;35.664;139.738;2022-10-19T06:38:59;23.90;54.70
9414;DHT22;4746;35.664;139.738;2022-10-19T06:41:28;24.00;54.00
9414;DHT22;4746;35.664;139.738;2022-10-19T06:43:57;24.00;53.70
9414;DHT22;4746;35.664;139.738;2022-10-19T06:46:25;23.80;52.90
9414;DHT22;4746;35.664;139.738;2022-10-19T06:48:55;23.60;53.10
9414;DHT22;4746;35.664;139.738;2022-10-19T06:51:26;23.30;53.70
9414;DHT22;4746;35.664;139.738;2022-10-19T06:53:55;23.20;54.10
9414;DHT22;4746;35.664;139.738;2022-10-19T06:56:24;23.20;54.20
9414;DHT22;4746;35.664;139.738;2022-10-19T06:58:53;23.10;54.70
9414;DHT22;4746;35.664;139.738;2022-10-19T07:01:22;23.00;55.00
9414;DHT22;4746;35.664;139.738;2022-10-19T07:03:53;22.80;55.30
9414;DHT22;4746;35.664;139.738;2022-10-19T07:06:22;22.70;56.00
9414;DHT22;4746;35.664;139.738;2022-10-19T07:08:52;22.40;56.60
9414;DHT22;4746;35.664;139.738;2022-10-19T07:11:20;22.20;57.50
9414;DHT22;4746;35.664;139.738;2022-10-19T07:13:48;22.00;58.50
9414;DHT22;4746;35.664;139.738;2022-10-19T07:16:18;21.90;59.90
9414;DHT22;4746;35.664;139.738;2022-10-19T07:18:47;21.70;60.70
9414;DHT22;4746;35.664;139.738;2022-10-19T07:21:18;21.50;62.80
9414;DHT22;4746;35.664;139.738;2022-10-19T07:23:47;21.30;64.70
9414;DHT22;4746;35.664;139.738;2022-10-19T07:26:23;21.30;67.10
9414;DHT22;4746;35.664;139.738;2022-10-19T07:28:55;21.10;68.90
9414;DHT22;4746;35.664;139.738;2022-10-19T07:31:24;21.10;70.50
9414;DHT22;4746;35.664;139.738;2022-10-19T07:33:58;21.00;69.80
9414;DHT22;4746;35.664;139.738;2022-10-19T07:36:29;20.90;70.00
9414;DHT22;4746;35.664;139.738;2022-10-19T07:39:00;20.80;70.00
9414;DHT22;4746;35.664;139.738;2022-10-19T07:41:30;20.60;69.80
9414;DHT22;4746;35.664;139.738;2022-10-19T07:44:01;20.60;70.60
9414;DHT22;4746;35.664;139.738;2022-10-19T07:46:30;20.40;70.90
9414;DHT22;4746;35.664;139.738;2022-10-19T07:49:09;20.40;71.90
9414;DHT22;4746;35.664;139.738;2022-10-19T07:51:41;20.30;72.50
9414;DHT22;4746;35.664;139.738;2022-10-19T07:54:09;20.20;73.60
9414;DHT22;4746;35.664;139.738;2022-10-19T07:56:36;20.10;73.50
9414;DHT22;4746;35.664;139.738;2022-10-19T07:59:04;20.00;74.00
9414;DHT22;4746;35.664;139.738;2022-10-19T08:01:36;19.90;75.90
9414;DHT22;4746;35.664;139.738;2022-10-19T08:04:09;19.80;76.30
9414;DHT22;4746;35.664;139.738;2022-10-19T08:06:36;19.70;77.80
9414;DHT22;4746;35.664;139.738;2022-10-19T08:09:05;19.60;78.00
9414;DHT22;4746;35.664;139.738;2022-10-19T08:11:34;19.50;76.50
9414;DHT22;4746;35.664;139.738;2022-10-19T08:14:05;19.40;77.10
9414;DHT22;4746;35.664;139.738;2022-10-19T08:16:37;19.40;77.40
9414;DHT22;4746;35.664;139.738;2022-10-19T08:19:11;19.30;78.90
9414;DHT22;4746;35.664;139.738;2022-10-19T08:21:42;19.30;79.20
9414;DHT22;4746;35.664;139.738;2022-10-19T08:24:13;19.20;80.40
9414;DHT22;4746;35.664;139.738;2022-10-19T08:26:42;19.10;81.10
9414;DHT22;4746;35.664;139.738;2022-10-19T08:29:18;19.00;82.90
9414;DHT22;4746;35.664;139.738;2022-10-19T08:31:48;18.90;84.90
9414;DHT22;4746;35.664;139.738;2022-10-19T08:34:16;18.80;88.50
9414;DHT22;4746;35.664;139.738;2022-10-19T08:36:44;18.70;90.90
9414;DHT22;4746;35.664;139.738;2022-10-19T08:39:12;18.70;93.30
9414;DHT22;4746;35.664;139.738;2022-10-19T08:42:02;18.60;95.40
9414;DHT22;4746;35.664;139.738;2022-10-19T08:44:46;18.60;98.30
9414;DHT22;4746;35.664;139.738;2022-10-19T08:50:22;18.50;99.90
9414;DHT22;4746;35.664;139.738;2022-10-19T08:53:10;18.40;99.90
9414;DHT22;4746;35.664;139.738;2022-10-19T09:04:30;18.30;99.90
9414;DHT22;4746;35.664;139.738;2022-10-19T09:09:56;18.10;99.90
9414;DHT22;4746;35.664;139.738;2022-10-19T09:12:58;18.10;99.90
9414;DHT22;4746;35.664;139.738;2022-10-19T09:15:43;18.00;99.90
9414;DHT22;4746;35.664;139.738;2022-10-19T09:18:24;18.00;99.90
9414;DHT22;4746;35.664;139.738;2022-10-19T09:21:01;18.00;99.90
9414;DHT22;4746;35.664;139.738;2022-10-19T09:24:26;18.00;99.90
9414;DHT22;4746;35.664;139.738;2022-10-19T09:26:39;17.90;99.90
9414;DHT22;4746;35.664;139.738;2022-10-19T09:32:21;17.80;99.90
9414;DHT22;4746;35.664;139.738;2022-10-19T09:35:22;17.80;99.90
9414;DHT22;4746;35.664;139.738;2022-10-19T09:37:54;17.80;99.90
9414;DHT22;4746;35.664;139.738;2022-10-19T09:40:29;17.80;99.90
9414;DHT22;4746;35.664;139.738;2022-10-19T09:42:57;17.80;99.90
9414;DHT22;4746;35.664;139.738;2022-10-19T09:45:37;17.80;99.90
9414;DHT22;4746;35.664;139.738;2022-10-19T09:48:39;17.80;99.90
9414;DHT22;4746;35.664;139.738;2022-10-19T09:51:13;17.80;99.90
9414;DHT22;4746;35.664;139.738;2022-10-19T09:53:51;17.70;99.90
9414;DHT22;4746;35.664;139.738;2022-10-19T09:56:24;17.70;99.90
9414;DHT22;4746;35.664;139.738;2022-10-19T09:58:57;17.70;99.90
9414;DHT22;4746;35.664;139.738;2022-10-19T10:01:39;17.70;99.90
9414;DHT22;4746;35.664;139.738;2022-10-19T10:04:13;17.60;99.90
9414;DHT22;4746;35.664;139.738;2022-10-19T10:06:43;17.60;99.90
9414;DHT22;4746;35.664;139.738;2022-10-19T10:09:20;17.60;99.90
9414;DHT22;4746;35.664;139.738;2022-10-19T10:11:53;17.60;99.90
9414;DHT22;4746;35.664;139.738;2022-10-19T10:14:35;17.60;99.90
9414;DHT22;4746;35.664;139.738;2022-10-19T10:17:19;17.60;99.90
9414;DHT22;4746;35.664;139.738;2022-10-19T10:22:34;17.50;99.90
9414;DHT22;4746;35.664;139.738;2022-10-19T10:25:14;17.50;99.90
9414;DHT22;4746;35.664;139.738;2022-10-19T10:27:57;17.50;99.90
9414;DHT22;4746;35.664;139.738;2022-10-19T10:30:46;17.50;99.90
9414;DHT22;4746;35.664;139.738;2022-10-19T10:33:23;17.50;99.90
9414;DHT22;4746;35.664;139.738;2022-10-19T10:36:01;17.40;99.90
9414;DHT22;4746;35.664;139.738;2022-10-19T10:38:48;17.50;99.90
9414;DHT22;4746;35.664;139.738;2022-10-19T10:41:21;17.40;99.90
9414;DHT22;4746;35.664;139.738;2022-10-19T10:43:58;17.50;99.90
9414;DHT22;4746;35.664;139.738;2022-10-19T10:46:56;17.50;99.90
9414;DHT22;4746;35.664;139.738;2022-10-19T10:49:32;17.40;99.90
9414;DHT22;4746;35.664;139.738;2022-10-19T10:52:10;17.50;99.90
9414;DHT22;4746;35.664;139.738;2022-10-19T10:55:00;17.40;99.90
9414;DHT22;4746;35.664;139.738;2022-10-19T10:57:44;17.50;99.90
9414;DHT22;4746;35.664;139.738;2022-10-19T11:00:19;17.40;99.90
9414;DHT22;4746;35.664;139.738;2022-10-19T11:05:47;17.40;99.90
9414;DHT22;4746;35.664;139.738;2022-10-19T11:11:40;17.40;99.90
9414;DHT22;4746;35.664;139.738;2022-10-19T11:15:10;17.40;99.90
9414;DHT22;4746;35.664;139.738;2022-10-19T11:17:31;17.30;99.90
9414;DHT22;4746;35.664;139.738;2022-10-19T11:20:06;17.30;99.90
9414;DHT22;4746;35.664;139.738;2022-10-19T11:22:45;17.30;99.90
9414;DHT22;4746;35.664;139.738;2022-10-19T11:28:43;17.30;99.90
9414;DHT22;4746;35.664;139.738;2022-10-19T11:31:47;17.30;99.90
9414;DHT22;4746;35.664;139.738;2022-10-19T11:37:58;17.40;99.90
9414;DHT22;4746;35.664;139.738;2022-10-19T11:40:33;17.40;99.90
9414;DHT22;4746;35.664;139.738;2022-10-19T11:46:15;17.40;99.90
9414;DHT22;4746;35.664;139.738;2022-10-19T11:49:30;17.40;99.90
9414;DHT22;4746;35.664;139.738;2022-10-19T11:52:46;17.40;99.90
9414;DHT22;4746;35.664;139.738;2022-10-19T11:55:05;17.30;99.90
9414;DHT22;4746;35.664;139.738;2022-10-19T11:57:55;17.30;99.90
9414;DHT22;4746;35.664;139.738;2022-10-19T12:00:28;17.30;99.90
9414;DHT22;4746;35.664;139.738;2022-10-19T12:12:28;17.10;99.90
9414;DHT22;4746;35.664;139.738;2022-10-19T12:17:48;17.00;99.90
9414;DHT22;4746;35.664;139.738;2022-10-19T12:20:28;17.00;99.90
9414;DHT22;4746;35.664;139.738;2022-10-19T12:23:31;17.00;99.90
9414;DHT22;4746;35.664;139.738;2022-10-19T12:26:15;17.00;99.90
9414;DHT22;4746;35.664;139.738;2022-10-19T12:28:53;17.00;99.90
9414;DHT22;4746;35.664;139.738;2022-10-19T12:31:27;16.90;99.90
9414;DHT22;4746;35.664;139.738;2022-10-19T12:36:45;16.90;99.90
9414;DHT22;4746;35.664;139.738;2022-10-19T12:42:49;16.90;99.90
9414;DHT22;4746;35.664;139.738;2022-10-19T12:45:43;16.80;99.90
9414;DHT22;4746;35.664;139.738;2022-10-19T12:48:29;16.80;99.90
9414;DHT22;4746;35.664;139.738;2022-10-19T12:50:59;16.70;99.90
9414;DHT22;4746;35.664;139.738;2022-10-19T12:53:32;16.70;99.90
9414;DHT22;4746;35.664;139.738;2022-10-19T12:56:24;16.70;99.90
9414;DHT22;4746;35.664;139.738;2022-10-19T12:58:58;16.70;99.90
9414;DHT22;4746;35.664;139.738;2022-10-19T13:04:15;16.70;99.90
9414;DHT22;4746;35.664;139.738;2022-10-19T13:07:14;16.70;99.90
9414;DHT22;4746;35.664;139.738;2022-10-19T13:09:46;16.70;99.90
9414;DHT22;4746;35.664;139.738;2022-10-19T13:14:52;16.70;99.90
9414;DHT22;4746;35.664;139.738;2022-10-19T13:22:48;16.70;99.90
9414;DHT22;4746;35.664;139.738;2022-10-19T13:25:30;16.60;99.90
9414;DHT22;4746;35.664;139.738;2022-10-19T13:38:39;16.50;99.90
9414;DHT22;4746;35.664;139.738;2022-10-19T13:50:21;16.50;99.90
9414;DHT22;4746;35.664;139.738;2022-10-19T13:56:57;16.40;99.90
9414;DHT22;4746;35.664;139.738;2022-10-19T14:00:14;16.40;99.90
9414;DHT22;4746;35.664;139.738;2022-10-19T14:11:37;16.20;99.90
9414;DHT22;4746;35.664;139.738;2022-10-19T14:14:13;16.20;99.90
9414;DHT22;4746;35.664;139.738;2022-10-19T14:16:55;16.20;99.90
9414;DHT22;4746;35.664;139.738;2022-10-19T14:19:46;16.10;99.90
9414;DHT22;4746;35.664;139.738;2022-10-19T14:22:29;16.10;99.90
9414;DHT22;4746;35.664;139.738;2022-10-19T14:28:03;16.10;99.90
9414;DHT22;4746;35.664;139.738;2022-10-19T14:30:35;16.00;99.90
9414;DHT22;4746;35.664;139.738;2022-10-19T14:33:10;16.00;99.90
9414;DHT22;4746;35.664;139.738;2022-10-19T14:35:48;16.00;99.90
9414;DHT22;4746;35.664;139.738;2022-10-19T14:38:27;15.90;99.90
9414;DHT22;4746;35.664;139.738;2022-10-19T14:40:56;15.90;99.90
9414;DHT22;4746;35.664;139.738;2022-10-19T14:43:28;15.90;99.90
9414;DHT22;4746;35.664;139.738;2022-10-19T14:46:10;15.90;99.90
9414;DHT22;4746;35.664;139.738;2022-10-19T14:48:45;15.90;99.90
9414;DHT22;4746;35.664;139.738;2022-10-19T14:51:38;15.90;99.90
9414;DHT22;4746;35.664;139.738;2022-10-19T14:54:26;15.90;99.90
9414;DHT22;4746;35.664;139.738;2022-10-19T14:57:01;15.90;99.90
9414;DHT22;4746;35.664;139.738;2022-10-19T14:59:57;15.80;99.90
9414;DHT22;4746;35.664;139.738;2022-10-19T15:02:39;15.80;99.90
9414;DHT22;4746;35.664;139.738;2022-10-19T15:05:20;15.80;99.90
9414;DHT22;4746;35.664;139.738;2022-10-19T15:07:50;15.70;99.90
9414;DHT22;4746;35.664;139.738;2022-10-19T15:10:23;15.70;99.90
9414;DHT22;4746;35.664;139.738;2022-10-19T15:13:03;15.70;99.90
9414;DHT22;4746;35.664;139.738;2022-10-19T15:15:34;15.60;99.90
9414;DHT22;4746;35.664;139.738;2022-10-19T15:18:04;15.60;99.90
9414;DHT22;4746;35.664;139.738;2022-10-19T15:20:37;15.60;99.90
9414;DHT22;4746;35.664;139.738;2022-10-19T15:28:53;15.40;99.90
9414;DHT22;4746;35.664;139.738;2022-10-19T15:31:33;15.40;99.90
9414;DHT22;4746;35.664;139.738;2022-10-19T15:34:02;15.30;99.90
9414;DHT22;4746;35.664;139.738;2022-10-19T15:36:31;15.30;99.90
9414;DHT22;4746;35.664;139.738;2022-10-19T15:39:05;15.30;99.90
9414;DHT22;4746;35.664;139.738;2022-10-19T15:41:36;15.20;99.90
9414;DHT22;4746;35.664;139.738;2022-10-19T15:44:27;15.20;99.90
9414;DHT22;4746;35.664;139.738;2022-10-19T15:49:50;15.10;99.90
9414;DHT22;4746;35.664;139.738;2022-10-19T15:52:25;15.10;99.90
9414;DHT22;4746;35.664;139.738;2022-10-19T15:54:56;15.10;99.90
9414;DHT22;4746;35.664;139.738;2022-10-19T15:59:57;15.10;99.90
9414;DHT22;4746;35.664;139.738;2022-10-19T16:02:26;15.10;99.90
9414;DHT22;4746;35.664;139.738;2022-10-19T16:04:54;15.10;99.90
9414;DHT22;4746;35.664;139.738;2022-10-19T16:07:29;15.00;99.90
9414;DHT22;4746;35.664;139.738;2022-10-19T16:09:59;15.00;99.90
9414;DHT22;4746;35.664;139.738;2022-10-19T16:12:26;15.00;99.90
9414;DHT22;4746;35.664;139.738;2022-10-19T16:14:56;15.00;99.90
9414;DHT22;4746;35.664;139.738;2022-10-19T16:17:24;15.00;99.90
9414;DHT22;4746;35.664;139.738;2022-10-19T16:19:51;14.90;99.90
9414;DHT22;4746;35.664;139.738;2022-10-19T16:22:19;14.90;99.90
9414;DHT22;4746;35.664;139.738;2022-10-19T16:24:46;14.80;99.90
9414;DHT22;4746;35.664;139.738;2022-10-19T16:27:14;14.90;99.90
9414;DHT22;4746;35.664;139.738;2022-10-19T16:29:43;14.80;99.90
9414;DHT22;4746;35.664;139.738;2022-10-19T16:32:10;14.80;99.90
9414;DHT22;4746;35.664;139.738;2022-10-19T16:34:38;14.80;99.90
9414;DHT22;4746;35.664;139.738;2022-10-19T16:37:06;14.70;99.90
9414;DHT22;4746;35.664;139.738;2022-10-19T16:39:34;14.70;99.90
9414;DHT22;4746;35.664;139.738;2022-10-19T16:42:02;14.70;99.90
9414;DHT22;4746;35.664;139.738;2022-10-19T16:44:29;14.70;99.90
9414;DHT22;4746;35.664;139.738;2022-10-19T16:46:57;14.70;99.90
9414;DHT22;4746;35.664;139.738;2022-10-19T16:49:25;14.70;99.90
9414;DHT22;4746;35.664;139.738;2022-10-19T16:51:52;14.70;99.90
9414;DHT22;4746;35.664;139.738;2022-10-19T16:54:20;14.70;99.90
9414;DHT22;4746;35.664;139.738;2022-10-19T16:56:48;14.60;99.90
9414;DHT22;4746;35.664;139.738;2022-10-19T16:59:17;14.60;99.90
9414;DHT22;4746;35.664;139.738;2022-10-19T17:01:45;14.50;99.90
9414;DHT22;4746;35.664;139.738;2022-10-19T17:04:14;14.50;99.90
9414;DHT22;4746;35.664;139.738;2022-10-19T17:06:45;14.50;99.90
9414;DHT22;4746;35.664;139.738;2022-10-19T17:09:13;14.50;99.90
9414;DHT22;4746;35.664;139.738;2022-10-19T17:11:41;14.40;99.90
9414;DHT22;4746;35.664;139.738;2022-10-19T17:14:11;14.40;99.90
9414;DHT22;4746;35.664;139.738;2022-10-19T17:16:39;14.40;99.90
9414;DHT22;4746;35.664;139.738;2022-10-19T17:19:07;14.30;99.90
9414;DHT22;4746;35.664;139.738;2022-10-19T17:21:37;14.30;99.90
9414;DHT22;4746;35.664;139.738;2022-10-19T17:24:07;14.30;99.90
9414;DHT22;4746;35.664;139.738;2022-10-19T17:26:42;14.30;99.90
9414;DHT22;4746;35.664;139.738;2022-10-19T17:29:11;14.30;99.90
9414;DHT22;4746;35.664;139.738;2022-10-19T17:31:40;14.20;99.90
9414;DHT22;4746;35.664;139.738;2022-10-19T17:34:09;14.20;99.90
9414;DHT22;4746;35.664;139.738;2022-10-19T17:36:39;14.20;99.90
9414;DHT22;4746;35.664;139.738;2022-10-19T17:39:16;14.20;99.90
9414;DHT22;4746;35.664;139.738;2022-10-19T17:41:47;14.20;99.90
9414;DHT22;4746;35.664;139.738;2022-10-19T17:44:18;14.10;99.90
9414;DHT22;4746;35.664;139.738;2022-10-19T17:46:47;14.10;99.90
9414;DHT22;4746;35.664;139.738;2022-10-19T17:49:14;14.10;99.90
9414;DHT22;4746;35.664;139.738;2022-10-19T17:51:42;14.10;99.90
9414;DHT22;4746;35.664;139.738;2022-10-19T17:54:13;14.10;99.90
9414;DHT22;4746;35.664;139.738;2022-10-19T17:56:41;14.10;99.90
9414;DHT22;4746;35.664;139.738;2022-10-19T17:59:13;14.10;99.90
9414;DHT22;4746;35.664;139.738;2022-10-19T18:01:40;14.10;99.90
9414;DHT22;4746;35.664;139.738;2022-10-19T18:04:08;14.10;99.90
9414;DHT22;4746;35.664;139.738;2022-10-19T18:06:37;14.10;99.90
9414;DHT22;4746;35.664;139.738;2022-10-19T18:09:07;14.10;99.90
9414;DHT22;4746;35.664;139.738;2022-10-19T18:11:40;14.00;99.90
9414;DHT22;4746;35.664;139.738;2022-10-19T18:14:11;14.00;99.90
9414;DHT22;4746;35.664;139.738;2022-10-19T18:16:41;14.00;99.90
9414;DHT22;4746;35.664;139.738;2022-10-19T18:19:15;14.00;99.90
9414;DHT22;4746;35.664;139.738;2022-10-19T18:21:45;13.90;99.90
9414;DHT22;4746;35.664;139.738;2022-10-19T18:24:16;13.90;99.90
9414;DHT22;4746;35.664;139.738;2022-10-19T18:26:48;13.90;99.90